sensor_id;sensor_type;location;lat;lon;timestamp;P1;durP1;ratioP1;P2;durP2;ratioP2
75426;SDS011;64007;50.632;13.700;2023-09-19T00:01:08;6.95;;;2.22;;
75426;SDS011;64007;50.632;13.700;2023-09-19T00:03:38;4.30;;;2.40;;
75426;SDS011;64007;50.632;13.700;2023-09-19T00:06:04;4.45;;;2.28;;
75426;SDS011;64007;50.632;13.700;2023-09-19T00:08:32;3.10;;;2.22;;
75426;SDS011;64007;50.632;13.700;2023-09-19T00:10:59;6.68;;;2.38;;
75426;SDS011;64007;50.632;13.700;2023-09-19T00:13:33;6.65;;;2.40;;
75426;SDS011;64007;50.632;13.700;2023-09-19T00:16:01;7.28;;;2.33;;
75426;SDS011;64007;50.632;13.700;2023-09-19T00:21:00;4.15;;;1.98;;
75426;SDS011;64007;50.632;13.700;2023-09-19T00:23:26;5.57;;;1.85;;
75426;SDS011;64007;50.632;13.700;2023-09-19T00:25:53;5.85;;;1.98;;
75426;SDS011;64007;50.632;13.700;2023-09-19T00:28:23;8.05;;;2.20;;
75426;SDS011;64007;50.632;13.700;2023-09-19T00:30:49;5.90;;;2.30;;
75426;SDS011;64007;50.632;13.700;2023-09-19T00:33:19;6.20;;;1.92;;
75426;SDS011;64007;50.632;13.700;2023-09-19T00:35:46;4.38;;;2.03;;
75426;SDS011;64007;50.632;13.700;2023-09-19T00:38:16;14.93;;;2.00;;
75426;SDS011;64007;50.632;13.700;2023-09-19T00:40:46;4.10;;;1.98;;
75426;SDS011;64007;50.632;13.700;2023-09-19T00:43:11;4.28;;;2.22;;
75426;SDS011;64007;50.632;13.700;2023-09-19T00:45:38;6.68;;;2.40;;
75426;SDS011;64007;50.632;13.700;2023-09-19T00:48:07;2.65;;;2.00;;
75426;SDS011;64007;50.632;13.700;2023-09-19T00:50:35;8.50;;;3.05;;
75426;SDS011;64007;50.632;13.700;2023-09-19T00:53:01;7.00;;;3.10;;
75426;SDS011;64007;50.632;13.700;2023-09-19T00:57:59;5.00;;;2.50;;
75426;SDS011;64007;50.632;13.700;2023-09-19T01:00:25;5.35;;;2.35;;
75426;SDS011;64007;50.632;13.700;2023-09-19T01:02:52;4.95;;;2.35;;
75426;SDS011;64007;50.632;13.700;2023-09-19T01:05:18;12.65;;;2.83;;
75426;SDS011;64007;50.632;13.700;2023-09-19T01:07:44;9.43;;;2.60;;
75426;SDS011;64007;50.632;13.700;2023-09-19T01:10:14;3.45;;;2.25;;
75426;SDS011;64007;50.632;13.700;2023-09-19T01:12:54;6.47;;;2.40;;
75426;SDS011;64007;50.632;13.700;2023-09-19T01:15:47;5.60;;;2.43;;
75426;SDS011;64007;50.632;13.700;2023-09-19T01:31:04;3.37;;;2.67;;
75426;SDS011;64007;50.632;13.700;2023-09-19T01:36:22;3.05;;;2.33;;
75426;SDS011;64007;50.632;13.700;2023-09-19T01:38:49;8.48;;;3.70;;
75426;SDS011;64007;50.632;13.700;2023-09-19T01:41:17;5.47;;;2.67;;
75426;SDS011;64007;50.632;13.700;2023-09-19T01:43:50;6.40;;;2.50;;
75426;SDS011;64007;50.632;13.700;2023-09-19T01:46:19;6.80;;;2.38;;
75426;SDS011;64007;50.632;13.700;2023-09-19T01:49:04;5.90;;;2.60;;
75426;SDS011;64007;50.632;13.700;2023-09-19T01:54:16;9.50;;;2.30;;
75426;SDS011;64007;50.632;13.700;2023-09-19T01:56:52;5.85;;;3.10;;
75426;SDS011;64007;50.632;13.700;2023-09-19T01:59:28;6.03;;;2.88;;
75426;SDS011;64007;50.632;13.700;2023-09-19T02:02:01;3.78;;;2.60;;
75426;SDS011;64007;50.632;13.700;2023-09-19T02:04:28;6.53;;;2.75;;
75426;SDS011;64007;50.632;13.700;2023-09-19T02:06:54;5.57;;;2.70;;
75426;SDS011;64007;50.632;13.700;2023-09-19T02:09:20;5.22;;;2.67;;
75426;SDS011;64007;50.632;13.700;2023-09-19T02:11:46;7.63;;;2.88;;
75426;SDS011;64007;50.632;13.700;2023-09-19T02:14:12;7.47;;;3.28;;
75426;SDS011;64007;50.632;13.700;2023-09-19T02:16:39;7.03;;;3.13;;
75426;SDS011;64007;50.632;13.700;2023-09-19T02:19:04;3.83;;;2.72;;
75426;SDS011;64007;50.632;13.700;2023-09-19T02:21:31;10.32;;;2.70;;
75426;SDS011;64007;50.632;13.700;2023-09-19T02:23:57;8.52;;;2.55;;
75426;SDS011;64007;50.632;13.700;2023-09-19T02:26:23;6.63;;;2.58;;
75426;SDS011;64007;50.632;13.700;2023-09-19T02:28:49;9.30;;;2.53;;
75426;SDS011;64007;50.632;13.700;2023-09-19T02:31:14;6.25;;;3.55;;
75426;SDS011;64007;50.632;13.700;2023-09-19T02:33:41;4.53;;;2.70;;
75426;SDS011;64007;50.632;13.700;2023-09-19T02:36:07;5.75;;;3.05;;
75426;SDS011;64007;50.632;13.700;2023-09-19T02:38:33;5.38;;;2.95;;
75426;SDS011;64007;50.632;13.700;2023-09-19T02:40:59;4.07;;;3.00;;
75426;SDS011;64007;50.632;13.700;2023-09-19T02:43:25;3.80;;;2.60;;
75426;SDS011;64007;50.632;13.700;2023-09-19T02:45:51;6.63;;;2.72;;
75426;SDS011;64007;50.632;13.700;2023-09-19T02:48:20;6.28;;;2.97;;
75426;SDS011;64007;50.632;13.700;2023-09-19T02:50:46;8.88;;;3.17;;
75426;SDS011;64007;50.632;13.700;2023-09-19T02:53:15;9.88;;;3.55;;
75426;SDS011;64007;50.632;13.700;2023-09-19T02:55:40;6.95;;;3.72;;
75426;SDS011;64007;50.632;13.700;2023-09-19T02:58:07;8.82;;;3.58;;
75426;SDS011;64007;50.632;13.700;2023-09-19T03:00:33;18.75;;;3.75;;
75426;SDS011;64007;50.632;13.700;2023-09-19T03:03:00;6.00;;;3.80;;
75426;SDS011;64007;50.632;13.700;2023-09-19T03:05:27;7.15;;;3.70;;
75426;SDS011;64007;50.632;13.700;2023-09-19T03:07:56;8.65;;;3.63;;
75426;SDS011;64007;50.632;13.700;2023-09-19T03:10:22;6.10;;;3.70;;
75426;SDS011;64007;50.632;13.700;2023-09-19T03:12:49;7.82;;;3.22;;
75426;SDS011;64007;50.632;13.700;2023-09-19T03:15:15;4.43;;;3.33;;
75426;SDS011;64007;50.632;13.700;2023-09-19T03:17:45;4.72;;;2.70;;
75426;SDS011;64007;50.632;13.700;2023-09-19T03:20:13;4.28;;;2.80;;
75426;SDS011;64007;50.632;13.700;2023-09-19T03:22:39;6.40;;;3.08;;
75426;SDS011;64007;50.632;13.700;2023-09-19T03:25:06;6.40;;;3.78;;
75426;SDS011;64007;50.632;13.700;2023-09-19T03:27:33;6.60;;;4.50;;
75426;SDS011;64007;50.632;13.700;2023-09-19T03:30:02;7.63;;;3.83;;
75426;SDS011;64007;50.632;13.700;2023-09-19T03:32:33;6.85;;;4.70;;
75426;SDS011;64007;50.632;13.700;2023-09-19T03:35:00;12.52;;;5.38;;
75426;SDS011;64007;50.632;13.700;2023-09-19T03:37:25;10.85;;;5.18;;
75426;SDS011;64007;50.632;13.700;2023-09-19T03:39:51;9.20;;;5.72;;
75426;SDS011;64007;50.632;13.700;2023-09-19T03:42:17;9.02;;;5.15;;
75426;SDS011;64007;50.632;13.700;2023-09-19T03:44:43;10.60;;;6.75;;
75426;SDS011;64007;50.632;13.700;2023-09-19T03:47:08;11.45;;;6.88;;
75426;SDS011;64007;50.632;13.700;2023-09-19T03:49:34;14.73;;;6.90;;
75426;SDS011;64007;50.632;13.700;2023-09-19T03:52:00;11.20;;;7.25;;
75426;SDS011;64007;50.632;13.700;2023-09-19T03:54:26;13.48;;;7.53;;
75426;SDS011;64007;50.632;13.700;2023-09-19T03:56:51;12.00;;;8.02;;
75426;SDS011;64007;50.632;13.700;2023-09-19T03:59:17;11.85;;;7.43;;
75426;SDS011;64007;50.632;13.700;2023-09-19T04:01:43;8.98;;;6.78;;
75426;SDS011;64007;50.632;13.700;2023-09-19T04:04:09;14.30;;;7.68;;
75426;SDS011;64007;50.632;13.700;2023-09-19T04:06:35;12.23;;;7.68;;
75426;SDS011;64007;50.632;13.700;2023-09-19T04:09:01;11.05;;;6.72;;
75426;SDS011;64007;50.632;13.700;2023-09-19T04:11:29;13.13;;;7.38;;
75426;SDS011;64007;50.632;13.700;2023-09-19T04:13:56;9.88;;;7.25;;
75426;SDS011;64007;50.632;13.700;2023-09-19T04:16:21;11.77;;;6.80;;
75426;SDS011;64007;50.632;13.700;2023-09-19T04:18:47;10.10;;;7.15;;
75426;SDS011;64007;50.632;13.700;2023-09-19T04:21:13;12.82;;;7.85;;
75426;SDS011;64007;50.632;13.700;2023-09-19T04:23:39;12.40;;;7.55;;
75426;SDS011;64007;50.632;13.700;2023-09-19T04:26:04;11.80;;;7.43;;
75426;SDS011;64007;50.632;13.700;2023-09-19T04:28:31;10.73;;;7.72;;
75426;SDS011;64007;50.632;13.700;2023-09-19T04:30:59;15.68;;;7.90;;
75426;SDS011;64007;50.632;13.700;2023-09-19T04:33:26;13.02;;;8.23;;
75426;SDS011;64007;50.632;13.700;2023-09-19T04:35:55;14.65;;;8.20;;
75426;SDS011;64007;50.632;13.700;2023-09-19T04:38:21;11.93;;;8.40;;
75426;SDS011;64007;50.632;13.700;2023-09-19T04:40:48;12.85;;;7.88;;
75426;SDS011;64007;50.632;13.700;2023-09-19T04:43:14;14.93;;;7.88;;
75426;SDS011;64007;50.632;13.700;2023-09-19T04:45:40;16.45;;;8.57;;
75426;SDS011;64007;50.632;13.700;2023-09-19T04:48:06;13.77;;;8.38;;
75426;SDS011;64007;50.632;13.700;2023-09-19T04:50:34;11.50;;;8.23;;
75426;SDS011;64007;50.632;13.700;2023-09-19T04:53:00;11.40;;;7.85;;
75426;SDS011;64007;50.632;13.700;2023-09-19T04:55:26;14.60;;;8.43;;
75426;SDS011;64007;50.632;13.700;2023-09-19T04:57:52;13.45;;;8.32;;
75426;SDS011;64007;50.632;13.700;2023-09-19T05:00:19;13.63;;;8.32;;
75426;SDS011;64007;50.632;13.700;2023-09-19T05:02:50;19.30;;;10.48;;
75426;SDS011;64007;50.632;13.700;2023-09-19T05:05:21;17.85;;;9.15;;
75426;SDS011;64007;50.632;13.700;2023-09-19T05:07:47;16.00;;;8.15;;
75426;SDS011;64007;50.632;13.700;2023-09-19T05:10:13;13.27;;;8.02;;
75426;SDS011;64007;50.632;13.700;2023-09-19T05:12:40;17.23;;;8.82;;
75426;SDS011;64007;50.632;13.700;2023-09-19T05:15:06;14.02;;;8.65;;
75426;SDS011;64007;50.632;13.700;2023-09-19T05:17:33;17.55;;;8.90;;
75426;SDS011;64007;50.632;13.700;2023-09-19T05:20:00;24.13;;;9.32;;
75426;SDS011;64007;50.632;13.700;2023-09-19T05:22:41;16.25;;;10.85;;
75426;SDS011;64007;50.632;13.700;2023-09-19T05:25:08;18.63;;;10.82;;
75426;SDS011;64007;50.632;13.700;2023-09-19T05:27:35;17.77;;;10.88;;
75426;SDS011;64007;50.632;13.700;2023-09-19T05:30:01;18.67;;;12.70;;
75426;SDS011;64007;50.632;13.700;2023-09-19T05:32:26;19.77;;;12.43;;
75426;SDS011;64007;50.632;13.700;2023-09-19T05:34:52;20.92;;;12.68;;
75426;SDS011;64007;50.632;13.700;2023-09-19T05:37:19;18.83;;;13.63;;
75426;SDS011;64007;50.632;13.700;2023-09-19T05:39:45;17.05;;;13.02;;
75426;SDS011;64007;50.632;13.700;2023-09-19T05:42:11;19.50;;;13.02;;
75426;SDS011;64007;50.632;13.700;2023-09-19T05:44:36;20.52;;;12.70;;
75426;SDS011;64007;50.632;13.700;2023-09-19T05:47:02;20.27;;;12.50;;
75426;SDS011;64007;50.632;13.700;2023-09-19T05:49:29;18.95;;;12.63;;
75426;SDS011;64007;50.632;13.700;2023-09-19T05:51:55;19.33;;;11.90;;
75426;SDS011;64007;50.632;13.700;2023-09-19T05:54:21;19.15;;;12.77;;
75426;SDS011;64007;50.632;13.700;2023-09-19T05:56:47;19.48;;;11.50;;
75426;SDS011;64007;50.632;13.700;2023-09-19T05:59:14;16.77;;;11.90;;
75426;SDS011;64007;50.632;13.700;2023-09-19T06:01:43;18.95;;;11.82;;
75426;SDS011;64007;50.632;13.700;2023-09-19T06:04:09;18.20;;;11.68;;
75426;SDS011;64007;50.632;13.700;2023-09-19T06:06:34;15.38;;;11.48;;
75426;SDS011;64007;50.632;13.700;2023-09-19T06:09:04;16.77;;;10.70;;
75426;SDS011;64007;50.632;13.700;2023-09-19T06:11:37;16.13;;;10.43;;
75426;SDS011;64007;50.632;13.700;2023-09-19T06:14:03;17.13;;;10.55;;
75426;SDS011;64007;50.632;13.700;2023-09-19T06:16:29;18.25;;;11.07;;
75426;SDS011;64007;50.632;13.700;2023-09-19T06:18:55;16.17;;;10.05;;
75426;SDS011;64007;50.632;13.700;2023-09-19T06:21:22;17.40;;;9.75;;
75426;SDS011;64007;50.632;13.700;2023-09-19T06:23:48;13.10;;;8.52;;
75426;SDS011;64007;50.632;13.700;2023-09-19T06:26:14;15.57;;;8.90;;
75426;SDS011;64007;50.632;13.700;2023-09-19T06:28:40;11.43;;;8.40;;
75426;SDS011;64007;50.632;13.700;2023-09-19T06:31:06;17.73;;;8.02;;
75426;SDS011;64007;50.632;13.700;2023-09-19T06:33:38;22.00;;;7.80;;
75426;SDS011;64007;50.632;13.700;2023-09-19T06:36:06;10.38;;;7.53;;
75426;SDS011;64007;50.632;13.700;2023-09-19T06:38:32;17.58;;;7.32;;
75426;SDS011;64007;50.632;13.700;2023-09-19T06:41:02;15.45;;;8.23;;
75426;SDS011;64007;50.632;13.700;2023-09-19T06:43:34;12.25;;;7.72;;
75426;SDS011;64007;50.632;13.700;2023-09-19T06:46:00;13.07;;;7.65;;
75426;SDS011;64007;50.632;13.700;2023-09-19T06:48:26;16.08;;;7.95;;
75426;SDS011;64007;50.632;13.700;2023-09-19T06:50:55;16.30;;;8.10;;
75426;SDS011;64007;50.632;13.700;2023-09-19T06:53:23;17.73;;;7.80;;
75426;SDS011;64007;50.632;13.700;2023-09-19T06:55:50;14.38;;;8.13;;
75426;SDS011;64007;50.632;13.700;2023-09-19T06:58:16;14.95;;;7.55;;
75426;SDS011;64007;50.632;13.700;2023-09-19T07:00:42;16.63;;;7.65;;
75426;SDS011;64007;50.632;13.700;2023-09-19T07:03:08;12.10;;;6.63;;
75426;SDS011;64007;50.632;13.700;2023-09-19T07:05:37;10.90;;;6.75;;
75426;SDS011;64007;50.632;13.700;2023-09-19T07:08:05;9.20;;;6.88;;
75426;SDS011;64007;50.632;13.700;2023-09-19T07:10:32;10.25;;;6.40;;
75426;SDS011;64007;50.632;13.700;2023-09-19T07:15:25;13.90;;;6.53;;
75426;SDS011;64007;50.632;13.700;2023-09-19T07:17:56;10.50;;;5.68;;
75426;SDS011;64007;50.632;13.700;2023-09-19T07:20:23;10.30;;;5.18;;
75426;SDS011;64007;50.632;13.700;2023-09-19T07:22:53;10.00;;;5.87;;
75426;SDS011;64007;50.632;13.700;2023-09-19T07:25:25;12.75;;;6.40;;
75426;SDS011;64007;50.632;13.700;2023-09-19T07:27:51;10.35;;;5.43;;
75426;SDS011;64007;50.632;13.700;2023-09-19T07:30:17;13.27;;;5.85;;
75426;SDS011;64007;50.632;13.700;2023-09-19T07:32:43;12.43;;;5.60;;
75426;SDS011;64007;50.632;13.700;2023-09-19T07:35:08;8.43;;;5.10;;
75426;SDS011;64007;50.632;13.700;2023-09-19T07:37:34;10.35;;;5.35;;
75426;SDS011;64007;50.632;13.700;2023-09-19T07:40:02;9.20;;;5.80;;
75426;SDS011;64007;50.632;13.700;2023-09-19T07:42:35;12.07;;;4.78;;
75426;SDS011;64007;50.632;13.700;2023-09-19T07:45:02;17.95;;;4.50;;
75426;SDS011;64007;50.632;13.700;2023-09-19T07:47:28;7.75;;;4.43;;
75426;SDS011;64007;50.632;13.700;2023-09-19T07:49:55;11.63;;;4.93;;
75426;SDS011;64007;50.632;13.700;2023-09-19T07:52:21;7.65;;;4.50;;
75426;SDS011;64007;50.632;13.700;2023-09-19T07:54:48;11.95;;;5.18;;
75426;SDS011;64007;50.632;13.700;2023-09-19T07:57:14;9.02;;;4.22;;
75426;SDS011;64007;50.632;13.700;2023-09-19T07:59:41;8.82;;;4.05;;
75426;SDS011;64007;50.632;13.700;2023-09-19T08:02:07;10.40;;;4.90;;
75426;SDS011;64007;50.632;13.700;2023-09-19T08:04:35;14.15;;;3.90;;
75426;SDS011;64007;50.632;13.700;2023-09-19T08:07:01;10.50;;;4.38;;
75426;SDS011;64007;50.632;13.700;2023-09-19T08:09:29;11.50;;;3.92;;
75426;SDS011;64007;50.632;13.700;2023-09-19T08:11:58;12.43;;;3.70;;
75426;SDS011;64007;50.632;13.700;2023-09-19T08:14:28;14.82;;;3.65;;
75426;SDS011;64007;50.632;13.700;2023-09-19T08:16:57;14.77;;;4.25;;
75426;SDS011;64007;50.632;13.700;2023-09-19T08:19:24;12.77;;;3.70;;
75426;SDS011;64007;50.632;13.700;2023-09-19T08:21:56;13.38;;;3.80;;
75426;SDS011;64007;50.632;13.700;2023-09-19T08:24:27;10.23;;;4.05;;
75426;SDS011;64007;50.632;13.700;2023-09-19T08:26:56;20.25;;;3.83;;
75426;SDS011;64007;50.632;13.700;2023-09-19T08:29:23;12.35;;;3.55;;
75426;SDS011;64007;50.632;13.700;2023-09-19T08:31:54;11.93;;;3.95;;
75426;SDS011;64007;50.632;13.700;2023-09-19T08:34:21;11.30;;;4.05;;
75426;SDS011;64007;50.632;13.700;2023-09-19T08:36:50;10.85;;;3.67;;
75426;SDS011;64007;50.632;13.700;2023-09-19T08:39:25;34.38;;;4.40;;
75426;SDS011;64007;50.632;13.700;2023-09-19T08:42:00;13.07;;;3.90;;
75426;SDS011;64007;50.632;13.700;2023-09-19T08:44:27;13.98;;;4.00;;
75426;SDS011;64007;50.632;13.700;2023-09-19T08:46:56;12.88;;;3.25;;
75426;SDS011;64007;50.632;13.700;2023-09-19T08:52:04;13.80;;;3.17;;
75426;SDS011;64007;50.632;13.700;2023-09-19T08:54:37;6.57;;;3.13;;
75426;SDS011;64007;50.632;13.700;2023-09-19T08:57:08;23.38;;;3.60;;
75426;SDS011;64007;50.632;13.700;2023-09-19T08:59:39;12.43;;;3.30;;
75426;SDS011;64007;50.632;13.700;2023-09-19T09:02:10;7.78;;;2.78;;
75426;SDS011;64007;50.632;13.700;2023-09-19T09:04:39;9.25;;;3.22;;
75426;SDS011;64007;50.632;13.700;2023-09-19T09:07:10;22.50;;;3.10;;
75426;SDS011;64007;50.632;13.700;2023-09-19T09:09:38;10.23;;;2.70;;
75426;SDS011;64007;50.632;13.700;2023-09-19T09:12:13;16.85;;;2.95;;
75426;SDS011;64007;50.632;13.700;2023-09-19T09:14:44;6.45;;;2.38;;
75426;SDS011;64007;50.632;13.700;2023-09-19T09:17:11;6.13;;;3.05;;
75426;SDS011;64007;50.632;13.700;2023-09-19T09:19:37;12.60;;;2.28;;
75426;SDS011;64007;50.632;13.700;2023-09-19T09:22:09;2.28;;;1.27;;
75426;SDS011;64007;50.632;13.700;2023-09-19T09:24:37;5.75;;;1.35;;
75426;SDS011;64007;50.632;13.700;2023-09-19T09:27:05;2.45;;;1.23;;
75426;SDS011;64007;50.632;13.700;2023-09-19T09:29:49;2.47;;;1.20;;
75426;SDS011;64007;50.632;13.700;2023-09-19T09:32:16;3.55;;;1.05;;
75426;SDS011;64007;50.632;13.700;2023-09-19T09:34:55;1.67;;;1.02;;
75426;SDS011;64007;50.632;13.700;2023-09-19T09:37:22;1.90;;;1.13;;
75426;SDS011;64007;50.632;13.700;2023-09-19T09:39:56;2.03;;;1.00;;
75426;SDS011;64007;50.632;13.700;2023-09-19T09:42:30;2.80;;;1.00;;
75426;SDS011;64007;50.632;13.700;2023-09-19T09:47:46;2.67;;;1.15;;
75426;SDS011;64007;50.632;13.700;2023-09-19T09:50:29;2.03;;;0.90;;
75426;SDS011;64007;50.632;13.700;2023-09-19T09:53:28;2.15;;;1.08;;
75426;SDS011;64007;50.632;13.700;2023-09-19T09:56:07;3.30;;;0.90;;
75426;SDS011;64007;50.632;13.700;2023-09-19T09:58:37;2.83;;;0.90;;
75426;SDS011;64007;50.632;13.700;2023-09-19T10:01:15;2.53;;;1.10;;
75426;SDS011;64007;50.632;13.700;2023-09-19T10:03:41;2.05;;;1.13;;
75426;SDS011;64007;50.632;13.700;2023-09-19T10:06:17;2.10;;;1.38;;
75426;SDS011;64007;50.632;13.700;2023-09-19T10:11:47;2.13;;;0.95;;
75426;SDS011;64007;50.632;13.700;2023-09-19T10:14:22;1.42;;;1.00;;
75426;SDS011;64007;50.632;13.700;2023-09-19T10:16:57;2.13;;;0.77;;
75426;SDS011;64007;50.632;13.700;2023-09-19T10:22:04;1.20;;;0.82;;
75426;SDS011;64007;50.632;13.700;2023-09-19T10:24:30;3.22;;;0.73;;
75426;SDS011;64007;50.632;13.700;2023-09-19T10:27:01;5.07;;;1.00;;
75426;SDS011;64007;50.632;13.700;2023-09-19T10:29:29;1.75;;;0.80;;
75426;SDS011;64007;50.632;13.700;2023-09-19T10:32:01;1.92;;;0.63;;
75426;SDS011;64007;50.632;13.700;2023-09-19T10:34:32;4.15;;;0.77;;
75426;SDS011;64007;50.632;13.700;2023-09-19T10:37:02;1.27;;;0.80;;
75426;SDS011;64007;50.632;13.700;2023-09-19T10:39:34;1.50;;;0.57;;
75426;SDS011;64007;50.632;13.700;2023-09-19T10:42:04;1.58;;;0.82;;
75426;SDS011;64007;50.632;13.700;2023-09-19T10:44:34;2.75;;;0.80;;
75426;SDS011;64007;50.632;13.700;2023-09-19T10:47:09;1.02;;;0.60;;
75426;SDS011;64007;50.632;13.700;2023-09-19T10:49:42;2.60;;;0.90;;
75426;SDS011;64007;50.632;13.700;2023-09-19T10:52:12;1.85;;;0.70;;
75426;SDS011;64007;50.632;13.700;2023-09-19T10:57:12;2.15;;;0.70;;
75426;SDS011;64007;50.632;13.700;2023-09-19T11:02:28;2.47;;;0.90;;
75426;SDS011;64007;50.632;13.700;2023-09-19T11:04:54;4.22;;;0.70;;
75426;SDS011;64007;50.632;13.700;2023-09-19T11:07:56;1.25;;;0.70;;
75426;SDS011;64007;50.632;13.700;2023-09-19T11:10:48;3.20;;;0.70;;
75426;SDS011;64007;50.632;13.700;2023-09-19T11:13:25;2.65;;;0.55;;
75426;SDS011;64007;50.632;13.700;2023-09-19T11:26:42;1.13;;;0.70;;
75426;SDS011;64007;50.632;13.700;2023-09-19T11:29:28;0.80;;;0.50;;
75426;SDS011;64007;50.632;13.700;2023-09-19T11:31:55;1.30;;;0.60;;
75426;SDS011;64007;50.632;13.700;2023-09-19T11:39:37;1.90;;;0.80;;
75426;SDS011;64007;50.632;13.700;2023-09-19T11:45:06;1.17;;;0.60;;
75426;SDS011;64007;50.632;13.700;2023-09-19T11:47:32;3.30;;;0.70;;
75426;SDS011;64007;50.632;13.700;2023-09-19T11:50:01;0.73;;;0.50;;
75426;SDS011;64007;50.632;13.700;2023-09-19T11:52:27;0.70;;;0.68;;
75426;SDS011;64007;50.632;13.700;2023-09-19T11:54:59;3.20;;;0.73;;
75426;SDS011;64007;50.632;13.700;2023-09-19T11:57:27;0.95;;;0.70;;
75426;SDS011;64007;50.632;13.700;2023-09-19T11:59:55;2.17;;;0.90;;
75426;SDS011;64007;50.632;13.700;2023-09-19T12:02:37;1.45;;;0.70;;
75426;SDS011;64007;50.632;13.700;2023-09-19T12:05:06;0.73;;;0.70;;
75426;SDS011;64007;50.632;13.700;2023-09-19T12:07:41;5.53;;;0.90;;
75426;SDS011;64007;50.632;13.700;2023-09-19T12:10:11;2.13;;;0.80;;
75426;SDS011;64007;50.632;13.700;2023-09-19T12:12:39;2.13;;;0.90;;
75426;SDS011;64007;50.632;13.700;2023-09-19T12:15:07;3.92;;;0.80;;
75426;SDS011;64007;50.632;13.700;2023-09-19T12:17:36;1.05;;;0.85;;
75426;SDS011;64007;50.632;13.700;2023-09-19T12:20:04;2.85;;;0.98;;
75426;SDS011;64007;50.632;13.700;2023-09-19T12:22:49;6.07;;;0.80;;
75426;SDS011;64007;50.632;13.700;2023-09-19T12:25:15;1.95;;;0.90;;
75426;SDS011;64007;50.632;13.700;2023-09-19T12:27:44;1.48;;;0.80;;
75426;SDS011;64007;50.632;13.700;2023-09-19T12:30:12;1.30;;;0.73;;
75426;SDS011;64007;50.632;13.700;2023-09-19T12:32:43;2.47;;;0.80;;
75426;SDS011;64007;50.632;13.700;2023-09-19T12:35:09;1.05;;;0.80;;
75426;SDS011;64007;50.632;13.700;2023-09-19T12:37:47;1.15;;;0.90;;
75426;SDS011;64007;50.632;13.700;2023-09-19T12:40:19;0.82;;;0.68;;
75426;SDS011;64007;50.632;13.700;2023-09-19T12:42:50;2.95;;;0.90;;
75426;SDS011;64007;50.632;13.700;2023-09-19T12:45:19;1.60;;;0.95;;
75426;SDS011;64007;50.632;13.700;2023-09-19T12:53:36;1.88;;;0.90;;
75426;SDS011;64007;50.632;13.700;2023-09-19T12:56:09;3.22;;;0.80;;
75426;SDS011;64007;50.632;13.700;2023-09-19T12:58:51;1.77;;;0.90;;
75426;SDS011;64007;50.632;13.700;2023-09-19T13:01:21;2.90;;;1.00;;
75426;SDS011;64007;50.632;13.700;2023-09-19T13:06:48;2.15;;;0.98;;
75426;SDS011;64007;50.632;13.700;2023-09-19T13:09:15;1.65;;;0.82;;
75426;SDS011;64007;50.632;13.700;2023-09-19T13:11:42;2.58;;;0.90;;
75426;SDS011;64007;50.632;13.700;2023-09-19T13:14:26;1.17;;;0.98;;
75426;SDS011;64007;50.632;13.700;2023-09-19T13:17:06;2.03;;;0.98;;
75426;SDS011;64007;50.632;13.700;2023-09-19T13:19:47;1.90;;;0.93;;
75426;SDS011;64007;50.632;13.700;2023-09-19T13:25:04;3.92;;;1.10;;
75426;SDS011;64007;50.632;13.700;2023-09-19T13:27:38;5.07;;;1.00;;
75426;SDS011;64007;50.632;13.700;2023-09-19T13:30:04;4.68;;;1.25;;
75426;SDS011;64007;50.632;13.700;2023-09-19T13:32:31;3.15;;;1.40;;
75426;SDS011;64007;50.632;13.700;2023-09-19T13:34:58;2.55;;;1.00;;
75426;SDS011;64007;50.632;13.700;2023-09-19T13:37:24;1.50;;;1.10;;
75426;SDS011;64007;50.632;13.700;2023-09-19T13:39:49;1.90;;;1.10;;
75426;SDS011;64007;50.632;13.700;2023-09-19T13:42:15;3.83;;;1.10;;
75426;SDS011;64007;50.632;13.700;2023-09-19T13:44:41;2.30;;;0.98;;
75426;SDS011;64007;50.632;13.700;2023-09-19T13:47:07;1.65;;;1.05;;
75426;SDS011;64007;50.632;13.700;2023-09-19T13:49:35;5.13;;;1.02;;
75426;SDS011;64007;50.632;13.700;2023-09-19T13:52:02;2.10;;;1.20;;
75426;SDS011;64007;50.632;13.700;2023-09-19T13:54:32;1.63;;;1.10;;
75426;SDS011;64007;50.632;13.700;2023-09-19T13:56:58;2.08;;;1.33;;
75426;SDS011;64007;50.632;13.700;2023-09-19T13:59:24;2.45;;;0.98;;
75426;SDS011;64007;50.632;13.700;2023-09-19T14:01:50;1.90;;;1.20;;
75426;SDS011;64007;50.632;13.700;2023-09-19T14:04:15;2.95;;;1.20;;
75426;SDS011;64007;50.632;13.700;2023-09-19T14:06:42;2.72;;;1.20;;
75426;SDS011;64007;50.632;13.700;2023-09-19T14:09:08;1.40;;;1.00;;
75426;SDS011;64007;50.632;13.700;2023-09-19T14:11:35;1.35;;;0.95;;
75426;SDS011;64007;50.632;13.700;2023-09-19T14:14:01;2.97;;;1.00;;
75426;SDS011;64007;50.632;13.700;2023-09-19T14:16:27;5.53;;;1.08;;
75426;SDS011;64007;50.632;13.700;2023-09-19T14:18:56;3.42;;;1.20;;
75426;SDS011;64007;50.632;13.700;2023-09-19T14:21:23;1.33;;;1.00;;
75426;SDS011;64007;50.632;13.700;2023-09-19T14:23:49;3.63;;;1.30;;
75426;SDS011;64007;50.632;13.700;2023-09-19T14:26:15;4.20;;;1.08;;
75426;SDS011;64007;50.632;13.700;2023-09-19T14:28:41;12.68;;;1.40;;
75426;SDS011;64007;50.632;13.700;2023-09-19T14:31:07;1.92;;;1.10;;
75426;SDS011;64007;50.632;13.700;2023-09-19T14:33:34;2.00;;;1.05;;
75426;SDS011;64007;50.632;13.700;2023-09-19T14:36:04;1.80;;;1.10;;
75426;SDS011;64007;50.632;13.700;2023-09-19T14:38:36;1.88;;;1.08;;
75426;SDS011;64007;50.632;13.700;2023-09-19T14:41:03;3.33;;;1.30;;
75426;SDS011;64007;50.632;13.700;2023-09-19T14:43:30;3.15;;;1.20;;
75426;SDS011;64007;50.632;13.700;2023-09-19T14:46:04;2.10;;;1.27;;
75426;SDS011;64007;50.632;13.700;2023-09-19T14:48:38;1.83;;;1.25;;
75426;SDS011;64007;50.632;13.700;2023-09-19T14:51:05;2.20;;;1.25;;
75426;SDS011;64007;50.632;13.700;2023-09-19T14:53:34;4.60;;;1.55;;
75426;SDS011;64007;50.632;13.700;2023-09-19T14:56:01;4.70;;;1.33;;
75426;SDS011;64007;50.632;13.700;2023-09-19T14:58:28;2.90;;;1.13;;
75426;SDS011;64007;50.632;13.700;2023-09-19T15:01:05;2.22;;;1.15;;
75426;SDS011;64007;50.632;13.700;2023-09-19T15:03:33;2.47;;;1.23;;
75426;SDS011;64007;50.632;13.700;2023-09-19T15:06:01;4.45;;;1.38;;
75426;SDS011;64007;50.632;13.700;2023-09-19T15:08:27;1.42;;;1.20;;
75426;SDS011;64007;50.632;13.700;2023-09-19T15:10:53;3.33;;;1.20;;
75426;SDS011;64007;50.632;13.700;2023-09-19T15:13:19;2.90;;;1.10;;
75426;SDS011;64007;50.632;13.700;2023-09-19T15:15:45;7.60;;;1.17;;
75426;SDS011;64007;50.632;13.700;2023-09-19T15:18:13;2.35;;;1.30;;
75426;SDS011;64007;50.632;13.700;2023-09-19T15:20:46;4.38;;;1.30;;
75426;SDS011;64007;50.632;13.700;2023-09-19T15:23:12;3.05;;;1.15;;
75426;SDS011;64007;50.632;13.700;2023-09-19T15:25:38;2.75;;;1.20;;
75426;SDS011;64007;50.632;13.700;2023-09-19T15:28:06;2.17;;;1.35;;
75426;SDS011;64007;50.632;13.700;2023-09-19T15:30:37;3.35;;;1.42;;
75426;SDS011;64007;50.632;13.700;2023-09-19T15:33:03;2.60;;;1.50;;
75426;SDS011;64007;50.632;13.700;2023-09-19T15:35:29;2.55;;;1.27;;
75426;SDS011;64007;50.632;13.700;2023-09-19T15:37:55;2.30;;;1.50;;
75426;SDS011;64007;50.632;13.700;2023-09-19T15:40:21;2.75;;;1.42;;
75426;SDS011;64007;50.632;13.700;2023-09-19T15:42:50;2.38;;;1.50;;
75426;SDS011;64007;50.632;13.700;2023-09-19T15:45:16;2.97;;;1.52;;
75426;SDS011;64007;50.632;13.700;2023-09-19T15:47:44;2.63;;;1.65;;
75426;SDS011;64007;50.632;13.700;2023-09-19T15:50:10;5.55;;;1.63;;